Time;durP1;ratioP1;P1;durP2;ratioP2;P2;SDS_P1;SDS_P2;PMS_P1;PMS_P2;Temp;Humidity;BMP_temperature;BMP_pressure;BME280_temperature;BME280_humidity;BME280_pressure;Samples;Min_cycle;Max_cycle;Signal;HPM_P1;HPM_P2
2021/05/20 00:01:02;;;;;;;11.23;10.13;;;7.60;99.90;;;;;;5020497;28;20613;-71
2021/05/20 00:03:27;;;;;;;10.87;8.80;;;7.60;99.90;;;;;;5020372;28;21931;-71
2021/05/20 00:05:53;;;;;;;10.27;9.20;;;7.60;99.90;;;;;;5019215;28;20802;-71
2021/05/20 00:08:19;;;;;;;11.00;9.80;;;7.60;99.90;;;;;;5020967;28;20178;-71
2021/05/20 00:10:45;;;;;;;12.23;9.53;;;7.60;99.90;;;;;;5019623;28;20663;-71
2021/05/20 00:13:10;;;;;;;10.83;9.33;;;7.60;99.90;;;;;;5021449;28;20293;-71
2021/05/20 00:15:36;;;;;;;10.23;9.07;;;7.60;99.90;;;;;;5019380;28;20202;-71
2021/05/20 00:18:02;;;;;;;11.00;9.80;;;7.50;99.90;;;;;;5020458;28;20196;-71
2021/05/20 00:20:27;;;;;;;13.40;9.47;;;7.60;99.90;;;;;;5020969;28;20224;-71
2021/05/20 00:22:53;;;;;;;12.60;9.10;;;7.60;99.90;;;;;;5019894;28;20311;-71
2021/05/20 00:25:19;;;;;;;10.13;9.00;;;7.50;99.90;;;;;;5021330;28;20638;-71
2021/05/20 00:27:44;;;;;;;12.00;8.70;;;7.50;99.90;;;;;;5021753;28;20196;-71
2021/05/20 00:30:11;;;;;;;11.27;9.13;;;7.50;99.90;;;;;;5020045;28;20582;-70
2021/05/20 00:32:38;;;;;;;9.60;8.70;;;7.50;99.90;;;;;;5020268;28;20202;-71
2021/05/20 00:35:05;;;;;;;12.87;9.40;;;7.50;99.90;;;;;;5019469;28;20428;-71
2021/05/20 00:37:31;;;;;;;10.20;9.10;;;7.50;99.90;;;;;;5019724;28;20920;-71
2021/05/20 00:39:56;;;;;;;12.13;7.73;;;7.40;99.90;;;;;;5019314;28;20529;-71
2021/05/20 00:42:22;;;;;;;10.40;8.70;;;7.40;99.90;;;;;;5019257;28;20202;-71
2021/05/20 00:44:57;;;;;;;9.90;7.80;;;7.30;99.90;;;;;;5022429;28;20324;-71
2021/05/20 00:47:33;;;;;;;8.63;7.23;;;7.20;99.90;;;;;;5020994;28;20631;-71
2021/05/20 00:50:01;;;;;;;10.87;8.83;;;7.20;99.90;;;;;;5019773;28;20431;-71
2021/05/20 00:52:27;;;;;;;9.17;8.13;;;7.20;99.90;;;;;;5019153;28;20802;-71
2021/05/20 00:54:58;;;;;;;9.40;7.97;;;7.20;99.90;;;;;;5019646;28;20425;-71
2021/05/20 00:57:25;;;;;;;9.10;8.20;;;7.10;99.90;;;;;;5019895;28;20475;-71
2021/05/20 00:59:51;;;;;;;10.37;8.30;;;7.10;99.90;;;;;;5019655;28;20435;-71
2021/05/20 01:02:18;;;;;;;8.03;7.23;;;7.10;99.90;;;;;;5017461;28;20767;-71
2021/05/20 01:04:44;;;;;;;9.67;8.60;;;7.10;99.90;;;;;;5019221;28;20539;-71
2021/05/20 01:07:10;;;;;;;9.20;8.20;;;7.10;99.90;;;;;;5018794;28;20539;-71
2021/05/20 01:09:36;;;;;;;9.03;8.13;;;7.10;99.90;;;;;;5018686;28;20424;-71
2021/05/20 01:12:03;;;;;;;9.07;8.10;;;7.10;99.90;;;;;;5018731;28;20202;-71
2021/05/20 01:14:29;;;;;;;9.37;7.70;;;7.20;99.90;;;;;;5018598;28;20445;-71
2021/05/20 01:16:54;;;;;;;10.10;8.53;;;7.20;99.90;;;;;;5018259;28;20433;-71
2021/05/20 01:19:20;;;;;;;10.30;8.47;;;7.30;99.90;;;;;;5018787;28;20179;-71
2021/05/20 01:21:46;;;;;;;9.33;8.00;;;7.20;99.90;;;;;;5017048;28;20224;-71
2021/05/20 01:24:12;;;;;;;8.33;7.43;;;7.20;99.90;;;;;;5018920;28;20177;-71
2021/05/20 01:26:39;;;;;;;9.40;7.63;;;7.20;99.90;;;;;;5014856;28;20439;-71
2021/05/20 01:29:06;;;;;;;10.00;8.47;;;7.30;99.90;;;;;;5014622;28;20428;-71
2021/05/20 01:31:32;;;;;;;8.93;8.03;;;7.30;99.90;;;;;;5019388;28;20809;-71
2021/05/20 01:33:58;;;;;;;11.17;9.20;;;7.30;99.90;;;;;;5018818;28;20539;-71
2021/05/20 01:36:28;;;;;;;9.23;7.30;;;7.30;99.90;;;;;;5017988;28;20505;-71
2021/05/20 01:38:58;;;;;;;9.40;7.50;;;7.30;99.90;;;;;;5018954;28;20468;-71
2021/05/20 01:41:24;;;;;;;10.33;9.23;;;7.30;99.90;;;;;;5017699;28;20450;-71
2021/05/20 01:43:49;;;;;;;10.77;8.53;;;7.30;99.90;;;;;;5019470;28;20528;-71
2021/05/20 01:46:15;;;;;;;10.73;8.60;;;7.30;99.90;;;;;;5016588;28;20919;-71
2021/05/20 01:48:43;;;;;;;8.60;7.70;;;7.30;99.90;;;;;;5017785;28;20186;-71
2021/05/20 01:51:14;;;;;;;9.93;8.50;;;7.30;99.90;;;;;;5016870;28;20197;-71
2021/05/20 01:53:47;;;;;;;8.90;8.00;;;7.30;99.90;;;;;;5018573;28;20450;-71
2021/05/20 01:56:18;;;;;;;8.87;7.50;;;7.20;99.90;;;;;;5018095;28;20428;-70
2021/05/20 01:58:44;;;;;;;10.80;8.80;;;7.20;99.90;;;;;;5019004;28;20479;-71
2021/05/20 02:01:11;;;;;;;10.57;7.70;;;7.20;99.90;;;;;;5016647;28;20452;-71
2021/05/20 02:03:37;;;;;;;10.33;7.63;;;7.20;99.90;;;;;;5018406;28;20441;-71
2021/05/20 02:06:04;;;;;;;11.53;9.30;;;7.20;99.90;;;;;;5018922;28;20474;-70
2021/05/20 02:08:30;;;;;;;11.37;8.47;;;7.10;99.90;;;;;;5018568;28;20437;-70
2021/05/20 02:10:56;;;;;;;11.90;8.90;;;7.10;99.90;;;;;;5016392;28;20499;-70
2021/05/20 02:13:22;;;;;;;14.17;8.47;;;7.10;99.90;;;;;;5017207;28;20460;-70
2021/05/20 02:15:48;;;;;;;9.57;8.17;;;7.10;99.90;;;;;;5017600;28;21090;-70
2021/05/20 02:18:14;;;;;;;8.27;7.07;;;7.10;99.90;;;;;;5017649;28;20433;-70
2021/05/20 02:20:40;;;;;;;8.53;7.20;;;7.00;99.90;;;;;;5016888;28;20440;-70
2021/05/20 02:23:06;;;;;;;9.57;7.97;;;7.10;99.90;;;;;;5017464;28;20186;-70
2021/05/20 02:25:32;;;;;;;8.13;7.33;;;7.00;99.90;;;;;;5017648;28;20440;-70
2021/05/20 02:27:59;;;;;;;9.40;7.20;;;7.00;99.90;;;;;;5017482;28;20667;-70
2021/05/20 02:30:25;;;;;;;9.83;7.70;;;6.90;99.90;;;;;;5019888;28;22715;-70
2021/05/20 02:32:51;;;;;;;10.03;7.60;;;6.80;99.90;;;;;;5016166;28;20456;-70
2021/05/20 02:35:17;;;;;;;11.93;8.23;;;6.80;99.90;;;;;;5019235;28;20434;-70
2021/05/20 02:37:43;;;;;;;9.20;8.03;;;6.70;99.90;;;;;;5020271;28;20429;-70
2021/05/20 02:40:11;;;;;;;9.10;8.20;;;6.70;99.90;;;;;;5021495;28;20209;-70
2021/05/20 02:42:37;;;;;;;8.63;7.83;;;6.70;99.90;;;;;;5019912;28;20430;-70
2021/05/20 02:45:06;;;;;;;12.13;8.70;;;6.70;99.90;;;;;;5022135;28;20441;-70
2021/05/20 02:47:32;;;;;;;9.50;7.23;;;6.70;99.90;;;;;;5021267;28;20508;-70
2021/05/20 02:49:58;;;;;;;9.90;8.90;;;6.60;99.90;;;;;;5021125;28;20528;-70
2021/05/20 02:52:23;;;;;;;10.13;9.03;;;6.60;99.90;;;;;;5019594;28;20880;-70
2021/05/20 02:54:49;;;;;;;12.80;10.67;;;6.50;99.90;;;;;;5022336;28;20257;-70
2021/05/20 02:57:15;;;;;;;12.80;9.37;;;6.50;99.90;;;;;;5020379;28;20212;-70
2021/05/20 02:59:40;;;;;;;9.10;8.13;;;6.50;99.90;;;;;;5020780;28;20254;-70
2021/05/20 03:02:07;;;;;;;9.43;8.13;;;6.50;99.90;;;;;;5022297;28;20186;-70
2021/05/20 03:04:36;;;;;;;8.47;7.70;;;6.40;99.90;;;;;;5025215;28;20548;-70
2021/05/20 03:07:03;;;;;;;9.73;8.20;;;6.40;99.90;;;;;;5026505;28;20814;-70
2021/05/20 03:09:30;;;;;;;10.73;8.87;;;6.30;99.90;;;;;;5024930;28;20923;-70
2021/05/20 03:12:00;;;;;;;11.40;10.03;;;6.30;99.90;;;;;;5024960;28;20467;-70
2021/05/20 03:14:26;;;;;;;11.50;8.80;;;6.30;99.90;;;;;;5025332;28;20447;-70
2021/05/20 03:16:53;;;;;;;10.07;8.60;;;6.30;99.90;;;;;;5025250;28;20943;-70
2021/05/20 03:19:19;;;;;;;13.10;10.07;;;6.30;99.90;;;;;;5025557;28;20441;-70
2021/05/20 03:21:44;;;;;;;11.30;9.23;;;6.20;99.90;;;;;;5024243;28;20432;-70
2021/05/20 03:24:10;;;;;;;14.07;10.47;;;6.20;99.90;;;;;;5024319;28;20488;-70
2021/05/20 03:26:36;;;;;;;9.43;8.43;;;6.20;99.90;;;;;;5024251;28;20182;-70
2021/05/20 03:29:03;;;;;;;11.23;10.03;;;6.20;99.90;;;;;;5024035;28;20436;-70
2021/05/20 03:31:29;;;;;;;12.07;9.70;;;6.20;99.90;;;;;;5024777;28;20512;-70
2021/05/20 03:33:54;;;;;;;12.80;9.97;;;6.20;99.90;;;;;;5024727;28;20456;-71
2021/05/20 03:36:20;;;;;;;18.30;10.87;;;6.20;99.90;;;;;;5023849;28;20961;-70
2021/05/20 03:38:46;;;;;;;14.50;10.67;;;6.10;99.90;;;;;;5023228;28;20174;-70
2021/05/20 03:41:12;;;;;;;12.80;9.60;;;6.10;99.90;;;;;;5023226;28;20520;-70
2021/05/20 03:43:38;;;;;;;12.97;10.37;;;6.10;99.90;;;;;;5025051;28;20186;-70
2021/05/20 03:46:04;;;;;;;14.77;10.20;;;6.10;99.90;;;;;;5025304;28;20208;-70
2021/05/20 03:48:30;;;;;;;11.17;9.37;;;6.20;99.90;;;;;;5030896;28;22190;-70
2021/05/20 03:51:00;;;;;;;13.20;11.27;;;6.20;99.90;;;;;;5028331;28;20453;-70
2021/05/20 03:53:32;;;;;;;14.83;11.47;;;6.20;99.90;;;;;;5023387;28;20753;-70
2021/05/20 03:56:01;;;;;;;18.10;11.43;;;6.20;99.90;;;;;;5024708;28;20479;-70
2021/05/20 03:58:30;;;;;;;17.07;13.67;;;6.20;99.90;;;;;;5023419;28;20463;-70
2021/05/20 04:00:56;;;;;;;21.03;14.90;;;6.20;99.90;;;;;;5024064;28;20436;-70
2021/05/20 04:03:28;;;;;;;19.87;14.77;;;6.30;99.90;;;;;;5024067;28;20449;-70
2021/05/20 04:05:55;;;;;;;24.37;13.90;;;6.40;99.90;;;;;;5023721;28;20540;-70
2021/05/20 04:08:21;;;;;;;19.33;13.90;;;6.40;99.90;;;;;;5023647;28;20445;-70
2021/05/20 04:10:48;;;;;;;21.67;16.50;;;6.50;99.90;;;;;;5023913;28;20879;-70
2021/05/20 04:13:13;;;;;;;26.90;16.90;;;6.60;99.90;;;;;;5022899;28;20210;-70
2021/05/20 04:15:40;;;;;;;24.27;15.80;;;6.60;99.90;;;;;;5023798;28;20428;-70
2021/05/20 04:18:06;;;;;;;24.67;16.77;;;6.70;99.90;;;;;;5024998;28;20432;-70
2021/05/20 04:20:32;;;;;;;23.47;16.17;;;6.80;99.90;;;;;;5023048;28;20433;-70
2021/05/20 04:22:57;;;;;;;21.47;16.03;;;6.90;99.90;;;;;;5022328;28;20828;-70
2021/05/20 04:25:23;;;;;;;28.50;18.30;;;6.90;99.90;;;;;;5023320;28;20192;-70
2021/05/20 04:27:48;;;;;;;23.47;17.40;;;7.00;99.90;;;;;;5023609;28;20185;-70
2021/05/20 04:30:15;;;;;;;25.10;17.77;;;7.00;99.90;;;;;;5023856;28;20174;-70
2021/05/20 04:32:40;;;;;;;21.67;16.43;;;7.10;99.90;;;;;;5023456;28;20210;-70
2021/05/20 04:35:07;;;;;;;23.80;16.30;;;7.10;99.90;;;;;;5023419;28;20986;-70
2021/05/20 04:37:32;;;;;;;26.83;17.67;;;7.10;99.90;;;;;;5024066;28;20179;-70
2021/05/20 04:39:58;;;;;;;24.30;17.27;;;7.20;99.90;;;;;;5023575;28;20448;-70
2021/05/20 04:42:23;;;;;;;23.67;16.67;;;7.30;99.90;;;;;;5022462;28;20622;-70
2021/05/20 04:44:49;;;;;;;23.20;17.00;;;7.30;99.90;;;;;;5024285;28;20187;-70
2021/05/20 04:47:15;;;;;;;20.10;15.93;;;7.30;99.90;;;;;;5022587;28;20197;-70
2021/05/20 04:49:40;;;;;;;23.57;16.67;;;7.30;99.90;;;;;;5022855;28;20182;-70
2021/05/20 04:52:06;;;;;;;23.00;16.40;;;7.40;99.90;;;;;;5020376;28;20234;-70
2021/05/20 04:54:32;;;;;;;23.17;16.70;;;7.40;99.90;;;;;;5022435;28;20181;-70
2021/05/20 04:56:57;;;;;;;22.20;15.13;;;7.50;99.90;;;;;;5023132;28;20506;-70
2021/05/20 04:59:23;;;;;;;22.43;17.27;;;7.50;99.90;;;;;;5022211;28;20205;-70
2021/05/20 05:01:48;;;;;;;25.30;16.67;;;7.60;99.90;;;;;;5023362;28;20577;-70
2021/05/20 05:04:14;;;;;;;19.67;17.37;;;7.70;99.90;;;;;;5022019;28;20179;-70
2021/05/20 05:06:40;;;;;;;20.27;15.80;;;7.70;99.90;;;;;;5023307;28;20199;-70
2021/05/20 05:09:05;;;;;;;21.47;16.60;;;7.70;99.90;;;;;;5022614;28;20185;-70
2021/05/20 05:11:31;;;;;;;21.93;15.67;;;7.70;99.90;;;;;;5021760;28;20240;-70
2021/05/20 05:13:57;;;;;;;18.90;14.30;;;7.80;99.90;;;;;;5020652;28;20210;-70
2021/05/20 05:16:22;;;;;;;22.50;15.57;;;7.90;99.90;;;;;;5022501;28;20189;-70
2021/05/20 05:18:48;;;;;;;23.43;14.60;;;7.80;99.90;;;;;;5022479;28;20202;-70
2021/05/20 05:21:14;;;;;;;18.27;15.73;;;7.90;99.90;;;;;;5021777;28;20266;-70
2021/05/20 05:23:40;;;;;;;16.43;14.63;;;7.90;99.90;;;;;;5021174;28;20174;-70
2021/05/20 05:26:06;;;;;;;19.47;14.03;;;8.00;99.90;;;;;;5022617;28;20213;-70
2021/05/20 05:28:31;;;;;;;21.30;14.50;;;7.90;99.90;;;;;;5021033;28;20474;-70
2021/05/20 05:30:57;;;;;;;18.80;14.57;;;8.00;99.90;;;;;;5022106;28;20194;-70
2021/05/20 05:33:23;;;;;;;21.17;13.77;;;8.20;99.90;;;;;;5023472;28;20198;-70
2021/05/20 05:35:49;;;;;;;16.40;12.90;;;8.50;99.90;;;;;;5021582;28;20269;-70
2021/05/20 05:38:15;;;;;;;15.50;12.20;;;8.50;99.90;;;;;;5021374;28;20526;-70
2021/05/20 05:40:42;;;;;;;17.47;13.97;;;8.60;99.90;;;;;;5015941;28;20429;-70
2021/05/20 05:43:07;;;;;;;14.60;11.83;;;8.80;99.90;;;;;;5020964;28;20876;-70
2021/05/20 05:45:33;;;;;;;15.50;12.00;;;8.80;99.90;;;;;;5021008;28;20468;-70
2021/05/20 05:47:59;;;;;;;15.60;13.30;;;8.80;99.90;;;;;;5020720;28;20269;-69
2021/05/20 05:50:25;;;;;;;13.53;11.30;;;8.80;99.90;;;;;;5021630;28;20445;-70
2021/05/20 05:52:50;;;;;;;12.83;11.13;;;8.70;99.90;;;;;;5022340;28;20202;-70
2021/05/20 05:55:16;;;;;;;13.80;12.40;;;8.70;99.90;;;;;;5022162;28;20432;-70
2021/05/20 05:57:42;;;;;;;10.70;9.07;;;8.80;99.90;;;;;;5023358;28;20178;-70
2021/05/20 06:00:08;;;;;;;11.23;9.63;;;8.90;99.90;;;;;;5022228;28;20182;-70
2021/05/20 06:02:34;;;;;;;12.57;10.57;;;8.90;99.90;;;;;;5022672;28;20248;-71
2021/05/20 06:05:01;;;;;;;13.27;9.47;;;9.10;99.90;;;;;;5022406;28;20519;-70
2021/05/20 06:07:27;;;;;;;10.77;9.50;;;9.10;99.90;;;;;;5022935;28;20536;-70
2021/05/20 06:09:52;;;;;;;21.77;10.60;;;9.10;99.90;;;;;;5022933;28;20847;-70
2021/05/20 06:12:18;;;;;;;10.70;9.67;;;9.20;99.90;;;;;;5023736;28;20659;-70
2021/05/20 06:14:45;;;;;;;12.90;11.50;;;9.20;99.90;;;;;;5022653;28;20182;-71
2021/05/20 06:17:10;;;;;;;12.70;10.00;;;9.30;99.90;;;;;;5022687;28;21117;-70
2021/05/20 06:19:36;;;;;;;13.67;11.53;;;9.20;99.90;;;;;;5022678;28;20443;-75
2021/05/20 06:22:02;;;;;;;10.47;9.53;;;9.30;99.90;;;;;;5021373;28;20779;-70
2021/05/20 06:24:28;;;;;;;10.30;9.30;;;9.40;99.90;;;;;;5022640;28;20471;-70
2021/05/20 06:26:54;;;;;;;11.53;9.57;;;9.40;99.90;;;;;;5022629;28;20482;-70
2021/05/20 06:29:19;;;;;;;12.70;10.70;;;9.40;99.90;;;;;;5021654;28;20244;-70
2021/05/20 06:31:45;;;;;;;12.07;10.77;;;9.40;99.90;;;;;;5022908;28;20195;-71
2021/05/20 06:34:11;;;;;;;10.20;9.07;;;9.60;99.90;;;;;;5022638;28;20184;-70
2021/05/20 06:36:37;;;;;;;11.30;9.20;;;9.80;99.90;;;;;;5024616;28;20178;-70
2021/05/20 06:39:08;;;;;;;9.83;8.83;;;9.90;99.90;;;;;;5026169;28;20174;-70
2021/05/20 06:41:33;;;;;;;10.57;8.97;;;10.00;99.90;;;;;;5026265;28;20466;-71
2021/05/20 06:43:59;;;;;;;11.67;8.90;;;10.00;99.90;;;;;;5024899;28;20982;-71
2021/05/20 06:46:25;;;;;;;9.10;8.30;;;10.10;99.90;;;;;;5026123;28;20201;-70
2021/05/20 06:48:50;;;;;;;10.37;9.27;;;10.10;99.90;;;;;;5026048;28;20188;-70
2021/05/20 06:51:16;;;;;;;10.30;9.13;;;10.30;99.90;;;;;;5024778;28;20178;-70
2021/05/20 06:53:42;;;;;;;12.10;8.83;;;10.40;99.90;;;;;;5045278;28;20577;-70
2021/05/20 06:56:15;;;;;;;9.00;8.17;;;10.50;99.90;;;;;;5032926;28;20174;-71
2021/05/20 07:01:25;;;;;;;8.80;7.53;;;10.50;99.90;;;;;;5025956;28;20909;-71
2021/05/20 07:03:51;;;;;;;6.93;6.23;;;10.60;99.90;;;;;;5025947;28;20432;-71
2021/05/20 07:06:18;;;;;;;7.20;6.43;;;10.80;99.90;;;;;;5025644;28;20236;-71
2021/05/20 07:08:44;;;;;;;7.50;6.77;;;11.00;99.90;;;;;;5025598;28;20186;-71
2021/05/20 07:11:10;;;;;;;6.07;5.50;;;11.10;99.90;;;;;;5026229;28;20440;-71
2021/05/20 07:13:35;;;;;;;7.10;6.50;;;11.20;99.90;;;;;;5024771;28;20457;-71
2021/05/20 07:16:01;;;;;;;6.60;5.57;;;11.30;99.90;;;;;;5025735;28;20539;-71
2021/05/20 07:18:27;;;;;;;6.17;5.57;;;11.20;99.90;;;;;;5025573;28;20358;-71
2021/05/20 07:20:53;;;;;;;6.50;5.93;;;11.30;99.90;;;;;;5024513;28;20432;-71
2021/05/20 07:23:20;;;;;;;6.13;5.00;;;11.50;99.90;;;;;;5047371;28;20181;-71
2021/05/20 07:25:46;;;;;;;4.73;4.43;;;11.50;99.90;;;;;;5025538;28;20177;-71
2021/05/20 07:28:13;;;;;;;5.50;4.87;;;11.70;99.90;;;;;;5025540;28;20451;-71
2021/05/20 07:30:39;;;;;;;5.63;4.97;;;11.90;99.90;;;;;;5024056;28;20313;-71
2021/05/20 07:33:06;;;;;;;4.80;4.30;;;12.00;99.90;;;;;;5024758;28;20456;-71
2021/05/20 07:35:31;;;;;;;5.60;4.60;;;12.10;99.90;;;;;;5024968;28;20445;-71
2021/05/20 07:37:57;;;;;;;5.37;4.77;;;12.00;99.90;;;;;;5024921;28;20499;-71
2021/05/20 07:40:23;;;;;;;3.67;3.30;;;11.90;99.90;;;;;;5025365;28;20170;-71
2021/05/20 07:42:49;;;;;;;4.80;4.50;;;12.00;99.90;;;;;;5023893;28;20192;-71
2021/05/20 07:45:16;;;;;;;5.30;4.20;;;12.00;99.90;;;;;;5024272;28;20174;-70
2021/05/20 07:47:43;;;;;;;4.50;4.07;;;12.00;99.90;;;;;;5023231;28;20170;-70
2021/05/20 07:50:09;;;;;;;4.53;4.23;;;12.10;99.90;;;;;;5022482;28;20451;-70
2021/05/20 07:52:35;;;;;;;4.40;4.00;;;12.10;99.90;;;;;;5024125;28;20448;-70
2021/05/20 07:55:01;;;;;;;8.37;3.60;;;12.10;99.90;;;;;;5024827;28;20933;-70
2021/05/20 07:57:27;;;;;;;4.23;3.90;;;12.00;99.90;;;;;;5023478;28;20425;-70
2021/05/20 07:59:52;;;;;;;3.80;3.50;;;12.10;99.90;;;;;;5025086;28;20170;-71
2021/05/20 08:04:52;;;;;;;4.60;4.20;;;12.10;99.90;;;;;;5023651;28;20264;-70
2021/05/20 08:12:33;;;;;;;4.00;3.70;;;12.40;99.90;;;;;;5021319;28;20554;-70
2021/05/20 08:14:59;;;;;;;4.83;4.03;;;12.50;99.90;;;;;;5024321;28;20876;-70
2021/05/20 08:17:24;;;;;;;4.10;3.63;;;12.30;99.90;;;;;;5024373;28;20186;-70
2021/05/20 08:19:50;;;;;;;4.80;4.30;;;12.40;99.90;;;;;;5024495;28;20199;-70
2021/05/20 08:22:16;;;;;;;5.07;4.27;;;12.40;99.90;;;;;;5023327;28;20625;-70
2021/05/20 08:24:41;;;;;;;4.10;3.80;;;12.50;99.90;;;;;;5023820;28;20182;-70
2021/05/20 08:27:11;;;;;;;3.33;3.13;;;12.70;99.90;;;;;;5024139;28;20178;-70
2021/05/20 08:29:37;;;;;;;3.40;3.10;;;13.00;99.90;;;;;;5024638;28;20170;-70
2021/05/20 08:32:03;;;;;;;4.03;3.80;;;13.10;99.90;;;;;;5023470;28;20465;-70
2021/05/20 08:34:29;;;;;;;4.93;4.23;;;13.00;99.90;;;;;;5024513;28;20429;-70
2021/05/20 08:36:55;;;;;;;3.60;3.30;;;12.80;99.90;;;;;;5022240;28;20446;-72
2021/05/20 08:39:20;;;;;;;3.83;3.47;;;12.60;99.90;;;;;;5023081;28;20177;-71
2021/05/20 08:41:49;;;;;;;4.70;3.50;;;12.70;99.90;;;;;;5024658;28;20432;-71
2021/05/20 08:44:17;;;;;;;5.87;4.00;;;12.80;99.90;;;;;;5038887;28;20186;-71
2021/05/20 08:46:43;;;;;;;4.23;3.93;;;13.00;99.90;;;;;;5022074;28;20436;-72
2021/05/20 08:49:18;;;;;;;3.57;3.27;;;13.10;99.90;;;;;;5024652;28;20721;-71
2021/05/20 08:51:47;;;;;;;4.00;3.60;;;13.20;99.90;;;;;;5028385;28;20428;-72
2021/05/20 08:54:14;;;;;;;3.73;3.53;;;13.30;99.90;;;;;;5022386;28;21202;-72
2021/05/20 08:56:43;;;;;;;5.30;4.77;;;13.40;99.90;;;;;;5024262;28;20437;-71
2021/05/20 08:59:09;;;;;;;4.47;4.07;;;13.20;99.90;;;;;;5022753;28;20425;-71
2021/05/20 09:01:39;;;;;;;6.23;3.97;;;13.10;99.90;;;;;;5023351;28;20498;-71
2021/05/20 09:04:06;;;;;;;4.50;4.20;;;13.10;99.90;;;;;;5024223;28;20192;-72
2021/05/20 09:06:38;;;;;;;3.87;3.67;;;13.10;99.90;;;;;;5024086;28;20465;-71
2021/05/20 09:09:08;;;;;;;4.97;4.67;;;13.20;99.90;;;;;;5023704;28;20441;-71
2021/05/20 09:11:34;;;;;;;4.20;3.90;;;13.60;99.90;;;;;;5024057;28;20505;-71
2021/05/20 09:14:04;;;;;;;3.43;2.90;;;14.00;99.90;;;;;;5023757;28;20460;-71
2021/05/20 09:16:34;;;;;;;3.17;3.07;;;14.00;99.90;;;;;;5023185;28;20443;-71
2021/05/20 09:19:00;;;;;;;2.60;2.50;;;14.10;99.90;;;;;;5023413;28;20456;-71
2021/05/20 09:21:26;;;;;;;3.80;2.80;;;14.10;99.90;;;;;;5022297;28;20519;-72
2021/05/20 09:23:52;;;;;;;3.00;2.80;;;14.10;99.90;;;;;;5024354;28;20512;-71
2021/05/20 09:26:18;;;;;;;3.73;3.43;;;14.20;99.90;;;;;;5024188;28;20269;-70
2021/05/20 09:28:49;;;;;;;5.37;3.67;;;14.10;99.90;;;;;;5023729;28;20535;-71
2021/05/20 09:31:35;;;;;;;3.93;3.63;;;13.90;99.90;;;;;;5022636;28;20193;-70
2021/05/20 09:34:11;;;;;;;3.17;3.07;;;13.90;99.90;;;;;;5024100;28;20959;-71
2021/05/20 09:36:46;;;;;;;3.27;3.00;;;13.80;99.90;;;;;;5023653;28;20763;-70
2021/05/20 09:39:13;;;;;;;3.30;3.10;;;13.90;99.90;;;;;;5022953;28;20478;-70
2021/05/20 09:41:39;;;;;;;3.63;3.43;;;14.20;99.90;;;;;;5023016;28;20429;-70
2021/05/20 09:44:26;;;;;;;5.90;4.00;;;14.40;99.90;;;;;;5023182;28;20486;-70
2021/05/20 09:46:51;;;;;;;3.93;3.63;;;14.40;99.90;;;;;;5016456;28;20277;-70
2021/05/20 09:49:17;;;;;;;3.47;3.27;;;14.30;99.90;;;;;;5024559;28;20524;-70
2021/05/20 09:51:42;;;;;;;3.23;3.03;;;14.20;99.90;;;;;;5028051;28;20284;-70
2021/05/20 09:54:09;;;;;;;3.97;3.77;;;14.30;99.90;;;;;;5022417;28;20544;-70
2021/05/20 09:56:42;;;;;;;4.20;3.40;;;14.60;99.90;;;;;;5022908;28;20564;-70
2021/05/20 09:59:15;;;;;;;5.30;3.50;;;14.70;99.90;;;;;;5023244;28;20416;-71
2021/05/20 10:01:42;;;;;;;3.03;2.90;;;14.60;99.90;;;;;;5022656;28;20433;-70
2021/05/20 10:04:09;;;;;;;3.00;2.80;;;14.70;99.90;;;;;;5022873;28;20749;-70
2021/05/20 10:06:37;;;;;;;2.73;2.57;;;14.90;99.90;;;;;;5023174;28;20761;-70
2021/05/20 10:09:05;;;;;;;2.80;2.47;;;15.00;99.90;;;;;;5022948;28;20531;-70
2021/05/20 10:11:35;;;;;;;3.20;3.00;;;15.20;99.90;;;;;;5021046;28;20426;-70
2021/05/20 10:14:03;;;;;;;3.33;3.13;;;15.50;99.90;;;;;;5022794;28;20786;-70
2021/05/20 10:16:30;;;;;;;3.87;3.57;;;15.50;99.90;;;;;;5022360;28;20559;-70
2021/05/20 10:18:57;;;;;;;4.03;3.37;;;15.30;99.90;;;;;;5022327;28;20914;-70
2021/05/20 10:21:24;;;;;;;4.17;3.87;;;15.40;99.90;;;;;;5022095;28;20429;-70
2021/05/20 10:23:51;;;;;;;4.03;3.73;;;15.60;99.90;;;;;;5022567;28;20428;-70
2021/05/20 10:26:17;;;;;;;4.37;4.07;;;15.80;99.90;;;;;;5022652;28;20447;-70
2021/05/20 10:28:43;;;;;;;4.60;4.23;;;15.60;99.90;;;;;;5022752;28;20428;-70
2021/05/20 10:31:09;;;;;;;5.17;3.37;;;15.20;99.90;;;;;;5022281;28;20261;-70
2021/05/20 10:33:35;;;;;;;3.37;3.17;;;15.00;99.90;;;;;;5022984;28;20484;-70
2021/05/20 10:36:02;;;;;;;3.40;3.20;;;14.80;99.90;;;;;;5022177;28;20525;-70
2021/05/20 10:38:31;;;;;;;3.30;3.00;;;14.60;99.90;;;;;;5022447;28;20277;-70
2021/05/20 10:41:10;;;;;;;3.23;3.03;;;14.50;99.90;;;;;;5023077;28;20937;-70
2021/05/20 10:43:36;;;;;;;3.27;2.97;;;14.50;99.90;;;;;;5023933;28;20428;-70
2021/05/20 10:46:13;;;;;;;3.07;2.87;;;14.60;99.90;;;;;;5023361;28;20519;-70
2021/05/20 10:48:52;;;;;;;2.43;2.33;;;15.00;99.90;;;;;;5022957;28;20757;-71
2021/05/20 10:51:23;;;;;;;3.83;3.30;;;15.50;99.90;;;;;;5023078;28;20744;-71
2021/05/20 10:54:07;;;;;;;2.53;2.43;;;15.60;99.90;;;;;;5021979;28;20777;-70
2021/05/20 10:56:33;;;;;;;2.40;2.17;;;15.50;99.90;;;;;;5021773;28;20787;-71
2021/05/20 10:59:00;;;;;;;3.50;3.20;;;15.50;99.90;;;;;;5021408;28;20436;-71
2021/05/20 11:01:27;;;;;;;6.07;3.97;;;15.50;99.90;;;;;;5022358;28;20429;-71
2021/05/20 11:03:55;;;;;;;3.20;3.00;;;15.40;99.90;;;;;;5021915;28;20426;-71
2021/05/20 11:06:23;;;;;;;3.47;3.27;;;15.30;99.90;;;;;;5021869;28;20894;-71
2021/05/20 11:08:48;;;;;;;4.70;4.40;;;15.20;99.90;;;;;;5021584;28;20836;-70
2021/05/20 11:11:29;;;;;;;3.20;3.00;;;15.00;99.90;;;;;;5022852;28;20515;-71
2021/05/20 11:13:59;;;;;;;4.13;3.30;;;14.90;99.90;;;;;;5021629;28;20301;-71
2021/05/20 11:16:28;;;;;;;3.37;3.10;;;14.80;99.90;;;;;;5022605;28;20424;-70
2021/05/20 11:19:14;;;;;;;2.77;2.57;;;14.60;99.90;;;;;;5026998;28;20453;-71
2021/05/20 11:22:04;;;;;;;2.33;2.17;;;14.50;99.90;;;;;;5023163;28;20510;-71
2021/05/20 11:24:34;;;;;;;2.77;2.57;;;14.30;99.90;;;;;;5025686;28;20409;-70
2021/05/20 11:27:01;;;;;;;2.90;2.80;;;14.20;99.90;;;;;;5025180;28;20424;-71
2021/05/20 11:29:36;;;;;;;3.07;2.87;;;14.00;99.90;;;;;;5026411;28;20425;-70
2021/05/20 11:32:27;;;;;;;2.60;2.40;;;13.80;99.90;;;;;;5025741;28;20451;-70
2021/05/20 11:37:26;;;;;;;2.70;2.50;;;13.70;99.90;;;;;;5026759;28;20764;-71
2021/05/20 11:39:52;;;;;;;3.50;2.63;;;13.70;99.90;;;;;;5025207;28;20425;-70
2021/05/20 11:42:29;;;;;;;3.10;2.90;;;13.70;99.90;;;;;;5025631;28;20439;-70
2021/05/20 11:44:55;;;;;;;2.73;2.53;;;13.80;99.90;;;;;;5026252;28;20223;-70
2021/05/20 11:47:22;;;;;;;2.70;2.50;;;13.80;99.90;;;;;;5023958;28;20562;-71
2021/05/20 11:49:49;;;;;;;3.20;3.10;;;13.90;99.90;;;;;;5025249;28;20421;-70
2021/05/20 11:52:15;;;;;;;2.80;2.63;;;14.00;99.90;;;;;;5024521;28;20461;-70
2021/05/20 11:54:49;;;;;;;3.47;3.27;;;14.10;99.90;;;;;;5024840;28;20433;-70
2021/05/20 11:57:17;;;;;;;3.30;3.00;;;14.30;99.90;;;;;;5025033;28;20923;-70
2021/05/20 11:59:45;;;;;;;3.20;3.00;;;14.30;99.90;;;;;;5024314;28;20443;-70
2021/05/20 12:02:32;;;;;;;4.13;3.80;;;14.50;99.90;;;;;;5023476;28;20483;-70
2021/05/20 12:05:08;;;;;;;3.77;3.47;;;14.70;99.90;;;;;;5025458;28;20482;-70
2021/05/20 12:07:38;;;;;;;4.50;3.97;;;15.30;99.90;;;;;;5025098;28;20456;-71
2021/05/20 12:10:13;;;;;;;3.90;3.60;;;15.80;99.90;;;;;;5024860;28;20488;-71
2021/05/20 12:12:40;;;;;;;4.30;4.00;;;16.20;99.90;;;;;;5024028;28;20463;-71
2021/05/20 12:15:17;;;;;;;3.30;3.00;;;16.70;99.90;;;;;;5025190;28;20751;-71
2021/05/20 12:17:47;;;;;;;2.87;2.67;;;17.00;99.90;;;;;;5023986;28;20425;-71
2021/05/20 12:20:15;;;;;;;2.80;2.70;;;17.40;99.90;;;;;;5024078;28;20756;-71
2021/05/20 12:22:42;;;;;;;2.80;2.60;;;17.30;99.90;;;;;;5024160;28;20463;-71
2021/05/20 12:25:13;;;;;;;3.47;3.07;;;17.10;99.90;;;;;;5024318;28;20437;-71
2021/05/20 12:27:38;;;;;;;4.13;3.20;;;16.90;99.90;;;;;;5025295;28;20491;-71
2021/05/20 12:30:06;;;;;;;2.47;2.27;;;16.70;99.90;;;;;;5024304;28;20425;-71
2021/05/20 12:32:38;;;;;;;2.70;2.57;;;16.70;99.90;;;;;;5022647;28;20214;-71
2021/05/20 12:35:06;;;;;;;2.23;2.13;;;16.50;99.90;;;;;;5022758;28;20428;-71
2021/05/20 12:37:42;;;;;;;3.07;2.90;;;16.40;99.90;;;;;;5023677;28;20524;-71
2021/05/20 12:40:16;;;;;;;3.13;2.83;;;16.10;99.90;;;;;;5023405;28;20452;-71
2021/05/20 12:42:42;;;;;;;3.03;2.83;;;15.80;99.90;;;;;;5020897;28;21740;-71
2021/05/20 12:45:09;;;;;;;3.50;3.30;;;15.70;99.90;;;;;;5023486;28;20786;-71
2021/05/20 12:47:50;;;;;;;3.20;2.90;;;15.70;99.90;;;;;;5023118;28;20523;-71
2021/05/20 12:50:27;;;;;;;2.63;2.53;;;15.80;99.90;;;;;;5023226;28;20427;-71
2021/05/20 12:52:56;;;;;;;6.90;2.63;;;16.20;99.90;;;;;;5026982;28;20471;-71
2021/05/20 12:55:44;;;;;;;2.63;2.53;;;16.90;99.90;;;;;;5022512;28;20831;-71
2021/05/20 12:58:09;;;;;;;2.97;2.87;;;17.60;99.90;;;;;;5023263;28;20429;-70
2021/05/20 13:00:57;;;;;;;2.50;2.27;;;18.20;99.90;;;;;;5023483;28;20400;-71